sensor_id;sensor_type;location;lat;lon;timestamp;P1;durP1;ratioP1;P2;durP2;ratioP2
65737;SDS011;52478;51.844;6.582;2022-07-23T00:01:37;7.50;;;2.60;;
65737;SDS011;52478;51.844;6.582;2022-07-23T00:04:03;5.97;;;2.38;;
65737;SDS011;52478;51.844;6.582;2022-07-23T00:06:31;5.05;;;1.98;;
65737;SDS011;52478;51.844;6.582;2022-07-23T00:08:58;5.90;;;2.28;;
65737;SDS011;52478;51.844;6.582;2022-07-23T00:11:24;5.97;;;2.50;;
65737;SDS011;52478;51.844;6.582;2022-07-23T00:13:50;6.00;;;2.40;;
65737;SDS011;52478;51.844;6.582;2022-07-23T00:16:18;6.10;;;2.70;;
65737;SDS011;52478;51.844;6.582;2022-07-23T00:18:44;7.47;;;2.70;;
65737;SDS011;52478;51.844;6.582;2022-07-23T00:21:10;5.32;;;2.17;;
65737;SDS011;52478;51.844;6.582;2022-07-23T00:23:38;5.57;;;2.70;;
65737;SDS011;52478;51.844;6.582;2022-07-23T00:26:04;7.32;;;2.85;;
65737;SDS011;52478;51.844;6.582;2022-07-23T00:28:32;5.72;;;2.72;;
65737;SDS011;52478;51.844;6.582;2022-07-23T00:30:59;6.40;;;2.53;;
65737;SDS011;52478;51.844;6.582;2022-07-23T00:33:25;6.28;;;2.47;;
65737;SDS011;52478;51.844;6.582;2022-07-23T00:35:51;6.28;;;2.30;;
65737;SDS011;52478;51.844;6.582;2022-07-23T00:38:17;5.78;;;2.63;;
65737;SDS011;52478;51.844;6.582;2022-07-23T00:40:45;5.70;;;2.78;;
65737;SDS011;52478;51.844;6.582;2022-07-23T00:43:11;5.97;;;2.47;;
65737;SDS011;52478;51.844;6.582;2022-07-23T00:45:38;6.28;;;2.33;;
65737;SDS011;52478;51.844;6.582;2022-07-23T00:48:05;5.68;;;2.55;;
65737;SDS011;52478;51.844;6.582;2022-07-23T00:50:31;5.35;;;2.20;;
65737;SDS011;52478;51.844;6.582;2022-07-23T00:52:57;6.47;;;2.65;;
65737;SDS011;52478;51.844;6.582;2022-07-23T00:55:24;5.88;;;2.60;;
65737;SDS011;52478;51.844;6.582;2022-07-23T00:57:51;6.32;;;2.35;;
65737;SDS011;52478;51.844;6.582;2022-07-23T01:00:19;5.00;;;2.17;;
65737;SDS011;52478;51.844;6.582;2022-07-23T01:02:45;6.05;;;2.65;;
65737;SDS011;52478;51.844;6.582;2022-07-23T01:05:11;6.05;;;2.70;;
65737;SDS011;52478;51.844;6.582;2022-07-23T01:07:38;6.28;;;2.75;;
65737;SDS011;52478;51.844;6.582;2022-07-23T01:10:05;5.78;;;3.08;;
65737;SDS011;52478;51.844;6.582;2022-07-23T01:12:53;7.82;;;2.67;;
65737;SDS011;52478;51.844;6.582;2022-07-23T01:15:19;7.93;;;3.00;;
65737;SDS011;52478;51.844;6.582;2022-07-23T01:17:45;5.72;;;2.10;;
65737;SDS011;52478;51.844;6.582;2022-07-23T01:20:11;6.13;;;2.40;;
65737;SDS011;52478;51.844;6.582;2022-07-23T01:22:39;5.65;;;2.40;;
65737;SDS011;52478;51.844;6.582;2022-07-23T01:25:06;5.75;;;2.65;;
65737;SDS011;52478;51.844;6.582;2022-07-23T01:27:32;5.40;;;2.33;;
65737;SDS011;52478;51.844;6.582;2022-07-23T01:29:59;5.93;;;2.35;;
65737;SDS011;52478;51.844;6.582;2022-07-23T01:32:26;7.38;;;2.88;;
65737;SDS011;52478;51.844;6.582;2022-07-23T01:34:52;5.78;;;2.78;;
65737;SDS011;52478;51.844;6.582;2022-07-23T01:37:18;6.28;;;2.35;;
65737;SDS011;52478;51.844;6.582;2022-07-23T01:39:46;5.35;;;2.30;;
65737;SDS011;52478;51.844;6.582;2022-07-23T01:42:12;5.70;;;2.55;;
65737;SDS011;52478;51.844;6.582;2022-07-23T01:44:38;5.57;;;2.67;;
65737;SDS011;52478;51.844;6.582;2022-07-23T01:47:05;6.03;;;2.67;;
65737;SDS011;52478;51.844;6.582;2022-07-23T01:49:31;5.72;;;2.30;;
65737;SDS011;52478;51.844;6.582;2022-07-23T01:51:57;6.95;;;2.30;;
65737;SDS011;52478;51.844;6.582;2022-07-23T01:54:27;6.63;;;2.67;;
65737;SDS011;52478;51.844;6.582;2022-07-23T01:56:54;6.05;;;2.58;;
65737;SDS011;52478;51.844;6.582;2022-07-23T01:59:21;6.45;;;2.63;;
65737;SDS011;52478;51.844;6.582;2022-07-23T02:01:47;5.97;;;2.78;;
65737;SDS011;52478;51.844;6.582;2022-07-23T02:04:14;5.43;;;2.60;;
65737;SDS011;52478;51.844;6.582;2022-07-23T02:06:40;6.95;;;2.45;;
65737;SDS011;52478;51.844;6.582;2022-07-23T02:09:06;5.50;;;2.45;;
65737;SDS011;52478;51.844;6.582;2022-07-23T02:11:33;5.70;;;2.65;;
65737;SDS011;52478;51.844;6.582;2022-07-23T02:14:00;5.63;;;2.33;;
65737;SDS011;52478;51.844;6.582;2022-07-23T02:16:27;5.68;;;2.42;;
65737;SDS011;52478;51.844;6.582;2022-07-23T02:18:53;5.40;;;2.35;;
65737;SDS011;52478;51.844;6.582;2022-07-23T02:21:19;6.75;;;2.42;;
65737;SDS011;52478;51.844;6.582;2022-07-23T02:23:46;7.45;;;2.53;;
65737;SDS011;52478;51.844;6.582;2022-07-23T02:26:12;6.47;;;2.20;;
65737;SDS011;52478;51.844;6.582;2022-07-23T02:28:38;6.00;;;2.33;;
65737;SDS011;52478;51.844;6.582;2022-07-23T02:31:06;6.55;;;2.58;;
65737;SDS011;52478;51.844;6.582;2022-07-23T02:33:32;5.68;;;2.45;;
65737;SDS011;52478;51.844;6.582;2022-07-23T02:35:59;5.78;;;2.45;;
65737;SDS011;52478;51.844;6.582;2022-07-23T02:38:25;5.97;;;2.42;;
65737;SDS011;52478;51.844;6.582;2022-07-23T02:40:51;6.93;;;2.70;;
65737;SDS011;52478;51.844;6.582;2022-07-23T02:43:18;5.43;;;2.70;;
65737;SDS011;52478;51.844;6.582;2022-07-23T02:45:44;5.35;;;2.28;;
65737;SDS011;52478;51.844;6.582;2022-07-23T02:48:12;8.13;;;2.70;;
65737;SDS011;52478;51.844;6.582;2022-07-23T02:50:39;6.28;;;2.22;;
65737;SDS011;52478;51.844;6.582;2022-07-23T02:53:05;8.30;;;2.20;;
65737;SDS011;52478;51.844;6.582;2022-07-23T02:55:31;8.93;;;2.40;;
65737;SDS011;52478;51.844;6.582;2022-07-23T02:57:58;6.18;;;2.50;;
65737;SDS011;52478;51.844;6.582;2022-07-23T03:00:24;5.50;;;2.72;;
65737;SDS011;52478;51.844;6.582;2022-07-23T03:02:50;6.15;;;2.92;;
65737;SDS011;52478;51.844;6.582;2022-07-23T03:05:18;7.30;;;2.40;;
65737;SDS011;52478;51.844;6.582;2022-07-23T03:07:45;5.00;;;2.42;;
65737;SDS011;52478;51.844;6.582;2022-07-23T03:10:11;5.72;;;2.72;;
65737;SDS011;52478;51.844;6.582;2022-07-23T03:12:37;5.15;;;2.25;;
65737;SDS011;52478;51.844;6.582;2022-07-23T03:15:04;5.93;;;3.05;;
65737;SDS011;52478;51.844;6.582;2022-07-23T03:17:30;5.32;;;2.35;;
65737;SDS011;52478;51.844;6.582;2022-07-23T03:19:57;5.50;;;2.63;;
65737;SDS011;52478;51.844;6.582;2022-07-23T03:22:24;6.10;;;2.42;;
65737;SDS011;52478;51.844;6.582;2022-07-23T03:24:51;6.07;;;2.88;;
65737;SDS011;52478;51.844;6.582;2022-07-23T03:27:19;5.75;;;2.40;;
65737;SDS011;52478;51.844;6.582;2022-07-23T03:29:46;6.38;;;2.80;;
65737;SDS011;52478;51.844;6.582;2022-07-23T03:32:12;6.13;;;2.70;;
65737;SDS011;52478;51.844;6.582;2022-07-23T03:34:39;5.38;;;2.70;;
65737;SDS011;52478;51.844;6.582;2022-07-23T03:37:05;5.28;;;2.28;;
65737;SDS011;52478;51.844;6.582;2022-07-23T03:39:33;6.32;;;2.33;;
65737;SDS011;52478;51.844;6.582;2022-07-23T03:41:59;5.60;;;2.40;;
65737;SDS011;52478;51.844;6.582;2022-07-23T03:44:25;5.32;;;2.40;;
65737;SDS011;52478;51.844;6.582;2022-07-23T03:46:52;5.50;;;2.42;;
65737;SDS011;52478;51.844;6.582;2022-07-23T03:49:18;6.72;;;2.50;;
65737;SDS011;52478;51.844;6.582;2022-07-23T03:51:44;5.90;;;2.53;;
65737;SDS011;52478;51.844;6.582;2022-07-23T03:54:11;5.25;;;2.30;;
65737;SDS011;52478;51.844;6.582;2022-07-23T03:56:38;6.32;;;2.65;;
65737;SDS011;52478;51.844;6.582;2022-07-23T03:59:04;5.72;;;2.60;;
65737;SDS011;52478;51.844;6.582;2022-07-23T04:01:31;5.53;;;2.33;;
65737;SDS011;52478;51.844;6.582;2022-07-23T04:03:57;6.28;;;2.40;;
65737;SDS011;52478;51.844;6.582;2022-07-23T04:06:24;5.32;;;2.50;;
65737;SDS011;52478;51.844;6.582;2022-07-23T04:08:50;6.28;;;2.72;;
65737;SDS011;52478;51.844;6.582;2022-07-23T04:11:16;5.05;;;2.03;;
65737;SDS011;52478;51.844;6.582;2022-07-23T04:13:44;5.03;;;2.03;;
65737;SDS011;52478;51.844;6.582;2022-07-23T04:16:10;6.40;;;2.60;;
65737;SDS011;52478;51.844;6.582;2022-07-23T04:18:36;5.78;;;2.47;;
65737;SDS011;52478;51.844;6.582;2022-07-23T04:21:03;5.20;;;2.50;;
65737;SDS011;52478;51.844;6.582;2022-07-23T04:23:29;5.78;;;2.30;;
65737;SDS011;52478;51.844;6.582;2022-07-23T04:25:55;6.18;;;2.80;;
65737;SDS011;52478;51.844;6.582;2022-07-23T04:28:22;7.68;;;2.67;;
65737;SDS011;52478;51.844;6.582;2022-07-23T04:30:49;5.03;;;2.20;;
65737;SDS011;52478;51.844;6.582;2022-07-23T04:33:16;5.72;;;2.63;;
65737;SDS011;52478;51.844;6.582;2022-07-23T04:35:42;5.00;;;2.15;;
65737;SDS011;52478;51.844;6.582;2022-07-23T04:38:08;5.03;;;2.25;;
65737;SDS011;52478;51.844;6.582;2022-07-23T04:40:35;5.63;;;2.42;;
65737;SDS011;52478;51.844;6.582;2022-07-23T04:43:01;5.75;;;1.95;;
65737;SDS011;52478;51.844;6.582;2022-07-23T04:45:27;5.50;;;2.47;;
65737;SDS011;52478;51.844;6.582;2022-07-23T04:47:55;5.35;;;2.30;;
65737;SDS011;52478;51.844;6.582;2022-07-23T04:50:21;5.35;;;2.67;;
65737;SDS011;52478;51.844;6.582;2022-07-23T04:52:48;5.45;;;2.35;;
65737;SDS011;52478;51.844;6.582;2022-07-23T04:55:14;5.40;;;2.10;;
65737;SDS011;52478;51.844;6.582;2022-07-23T04:57:40;6.45;;;2.30;;
65737;SDS011;52478;51.844;6.582;2022-07-23T05:00:08;5.72;;;2.05;;
65737;SDS011;52478;51.844;6.582;2022-07-23T05:02:34;5.32;;;2.22;;
65737;SDS011;52478;51.844;6.582;2022-07-23T05:05:02;5.25;;;2.40;;
65737;SDS011;52478;51.844;6.582;2022-07-23T05:07:29;5.97;;;2.22;;
65737;SDS011;52478;51.844;6.582;2022-07-23T05:09:55;5.10;;;2.45;;
65737;SDS011;52478;51.844;6.582;2022-07-23T05:12:21;5.65;;;2.20;;
65737;SDS011;52478;51.844;6.582;2022-07-23T05:14:47;5.47;;;2.58;;
65737;SDS011;52478;51.844;6.582;2022-07-23T05:17:14;6.63;;;2.30;;
65737;SDS011;52478;51.844;6.582;2022-07-23T05:19:40;5.20;;;2.10;;
65737;SDS011;52478;51.844;6.582;2022-07-23T05:22:08;5.88;;;2.75;;
65737;SDS011;52478;51.844;6.582;2022-07-23T05:24:34;5.80;;;2.58;;
65737;SDS011;52478;51.844;6.582;2022-07-23T05:27:00;5.20;;;2.33;;
65737;SDS011;52478;51.844;6.582;2022-07-23T05:29:27;7.25;;;2.70;;
65737;SDS011;52478;51.844;6.582;2022-07-23T05:31:53;5.50;;;2.33;;
65737;SDS011;52478;51.844;6.582;2022-07-23T05:34:19;6.10;;;2.30;;
65737;SDS011;52478;51.844;6.582;2022-07-23T05:36:45;5.10;;;2.10;;
65737;SDS011;52478;51.844;6.582;2022-07-23T05:39:15;5.68;;;2.45;;
65737;SDS011;52478;51.844;6.582;2022-07-23T05:41:41;4.97;;;1.92;;
65737;SDS011;52478;51.844;6.582;2022-07-23T05:44:07;7.32;;;2.40;;
65737;SDS011;52478;51.844;6.582;2022-07-23T05:46:34;8.43;;;3.60;;
65737;SDS011;52478;51.844;6.582;2022-07-23T05:49:00;7.40;;;3.55;;
65737;SDS011;52478;51.844;6.582;2022-07-23T05:51:26;7.30;;;3.80;;
65737;SDS011;52478;51.844;6.582;2022-07-23T05:53:53;7.82;;;3.95;;
65737;SDS011;52478;51.844;6.582;2022-07-23T05:56:20;14.55;;;4.35;;
65737;SDS011;52478;51.844;6.582;2022-07-23T05:58:47;8.38;;;3.80;;
65737;SDS011;52478;51.844;6.582;2022-07-23T06:01:13;10.85;;;4.35;;
65737;SDS011;52478;51.844;6.582;2022-07-23T06:03:39;7.90;;;4.55;;
65737;SDS011;52478;51.844;6.582;2022-07-23T06:06:06;9.30;;;4.07;;
65737;SDS011;52478;51.844;6.582;2022-07-23T06:08:32;8.95;;;3.67;;
65737;SDS011;52478;51.844;6.582;2022-07-23T06:10:58;10.50;;;4.43;;
65737;SDS011;52478;51.844;6.582;2022-07-23T06:13:26;10.40;;;4.28;;
65737;SDS011;52478;51.844;6.582;2022-07-23T06:15:52;10.82;;;4.50;;
65737;SDS011;52478;51.844;6.582;2022-07-23T06:18:19;7.97;;;4.32;;
65737;SDS011;52478;51.844;6.582;2022-07-23T06:20:45;8.02;;;3.45;;
65737;SDS011;52478;51.844;6.582;2022-07-23T06:23:11;7.15;;;3.92;;
65737;SDS011;52478;51.844;6.582;2022-07-23T06:25:38;8.68;;;3.80;;
65737;SDS011;52478;51.844;6.582;2022-07-23T06:28:04;8.10;;;3.53;;
65737;SDS011;52478;51.844;6.582;2022-07-23T06:30:32;8.68;;;3.60;;
65737;SDS011;52478;51.844;6.582;2022-07-23T06:32:58;5.90;;;3.00;;
65737;SDS011;52478;51.844;6.582;2022-07-23T06:35:25;7.22;;;2.60;;
65737;SDS011;52478;51.844;6.582;2022-07-23T06:37:51;5.70;;;2.65;;
65737;SDS011;52478;51.844;6.582;2022-07-23T06:40:18;7.07;;;2.50;;
65737;SDS011;52478;51.844;6.582;2022-07-23T06:42:45;5.47;;;2.38;;
65737;SDS011;52478;51.844;6.582;2022-07-23T06:45:11;6.32;;;2.63;;
65737;SDS011;52478;51.844;6.582;2022-07-23T06:47:39;6.07;;;3.03;;
65737;SDS011;52478;51.844;6.582;2022-07-23T06:50:07;8.55;;;2.42;;
65737;SDS011;52478;51.844;6.582;2022-07-23T06:52:33;7.97;;;2.63;;
65737;SDS011;52478;51.844;6.582;2022-07-23T06:54:59;7.32;;;2.40;;
65737;SDS011;52478;51.844;6.582;2022-07-23T06:57:26;6.40;;;2.50;;
65737;SDS011;52478;51.844;6.582;2022-07-23T06:59:52;6.93;;;2.30;;
65737;SDS011;52478;51.844;6.582;2022-07-23T07:02:18;7.15;;;2.60;;
65737;SDS011;52478;51.844;6.582;2022-07-23T07:04:46;5.75;;;2.40;;
65737;SDS011;52478;51.844;6.582;2022-07-23T07:07:12;6.85;;;2.03;;
65737;SDS011;52478;51.844;6.582;2022-07-23T07:09:38;6.05;;;2.17;;
65737;SDS011;52478;51.844;6.582;2022-07-23T07:12:05;5.93;;;2.60;;
65737;SDS011;52478;51.844;6.582;2022-07-23T07:14:31;8.18;;;2.28;;
65737;SDS011;52478;51.844;6.582;2022-07-23T07:16:58;7.03;;;2.40;;
65737;SDS011;52478;51.844;6.582;2022-07-23T07:19:24;5.28;;;2.50;;
65737;SDS011;52478;51.844;6.582;2022-07-23T07:21:52;6.60;;;2.40;;
65737;SDS011;52478;51.844;6.582;2022-07-23T07:24:18;7.25;;;2.20;;
65737;SDS011;52478;51.844;6.582;2022-07-23T07:26:44;5.10;;;1.95;;
65737;SDS011;52478;51.844;6.582;2022-07-23T07:29:10;5.30;;;2.35;;
65737;SDS011;52478;51.844;6.582;2022-07-23T07:31:37;5.40;;;1.85;;
65737;SDS011;52478;51.844;6.582;2022-07-23T07:34:03;5.72;;;2.33;;
65737;SDS011;52478;51.844;6.582;2022-07-23T07:36:29;5.75;;;2.00;;
65737;SDS011;52478;51.844;6.582;2022-07-23T07:38:57;6.45;;;2.40;;
65737;SDS011;52478;51.844;6.582;2022-07-23T07:41:23;5.93;;;2.10;;
65737;SDS011;52478;51.844;6.582;2022-07-23T07:43:51;5.30;;;2.08;;
65737;SDS011;52478;51.844;6.582;2022-07-23T07:46:17;6.68;;;2.28;;
65737;SDS011;52478;51.844;6.582;2022-07-23T07:48:43;5.20;;;1.90;;
65737;SDS011;52478;51.844;6.582;2022-07-23T07:51:10;5.32;;;2.28;;
65737;SDS011;52478;51.844;6.582;2022-07-23T07:53:36;4.72;;;1.83;;
65737;SDS011;52478;51.844;6.582;2022-07-23T07:56:04;5.07;;;2.03;;
65737;SDS011;52478;51.844;6.582;2022-07-23T07:58:31;5.85;;;1.88;;
65737;SDS011;52478;51.844;6.582;2022-07-23T08:00:57;7.00;;;2.08;;
65737;SDS011;52478;51.844;6.582;2022-07-23T08:03:23;5.30;;;1.60;;
65737;SDS011;52478;51.844;6.582;2022-07-23T08:05:50;5.03;;;2.05;;
65737;SDS011;52478;51.844;6.582;2022-07-23T08:08:16;6.78;;;1.88;;
65737;SDS011;52478;51.844;6.582;2022-07-23T08:10:42;5.72;;;1.90;;
65737;SDS011;52478;51.844;6.582;2022-07-23T08:13:13;7.05;;;2.10;;
65737;SDS011;52478;51.844;6.582;2022-07-23T08:15:40;5.55;;;2.05;;
65737;SDS011;52478;51.844;6.582;2022-07-23T08:18:06;10.00;;;2.58;;
65737;SDS011;52478;51.844;6.582;2022-07-23T08:20:33;10.85;;;2.60;;
65737;SDS011;52478;51.844;6.582;2022-07-23T08:23:02;7.97;;;2.35;;
65737;SDS011;52478;51.844;6.582;2022-07-23T08:25:29;9.77;;;2.30;;
65737;SDS011;52478;51.844;6.582;2022-07-23T08:32:51;6.82;;;2.00;;
65737;SDS011;52478;51.844;6.582;2022-07-23T08:35:17;6.40;;;1.83;;
65737;SDS011;52478;51.844;6.582;2022-07-23T08:37:44;5.68;;;2.05;;
65737;SDS011;52478;51.844;6.582;2022-07-23T08:40:11;7.35;;;2.10;;
65737;SDS011;52478;51.844;6.582;2022-07-23T08:42:37;6.65;;;2.00;;
65737;SDS011;52478;51.844;6.582;2022-07-23T08:45:07;7.82;;;1.95;;
65737;SDS011;52478;51.844;6.582;2022-07-23T08:47:33;8.85;;;1.65;;
65737;SDS011;52478;51.844;6.582;2022-07-23T08:50:02;7.63;;;1.67;;
65737;SDS011;52478;51.844;6.582;2022-07-23T08:52:28;5.80;;;1.90;;
65737;SDS011;52478;51.844;6.582;2022-07-23T08:54:56;6.50;;;1.75;;
65737;SDS011;52478;51.844;6.582;2022-07-23T08:57:22;5.80;;;1.80;;
65737;SDS011;52478;51.844;6.582;2022-07-23T08:59:49;8.57;;;1.98;;
65737;SDS011;52478;51.844;6.582;2022-07-23T09:02:15;5.72;;;1.65;;
65737;SDS011;52478;51.844;6.582;2022-07-23T09:04:41;7.32;;;1.65;;
65737;SDS011;52478;51.844;6.582;2022-07-23T09:07:09;7.32;;;1.80;;
65737;SDS011;52478;51.844;6.582;2022-07-23T09:09:35;5.70;;;1.92;;
65737;SDS011;52478;51.844;6.582;2022-07-23T09:12:02;5.75;;;1.85;;
65737;SDS011;52478;51.844;6.582;2022-07-23T09:14:35;5.90;;;1.75;;
65737;SDS011;52478;51.844;6.582;2022-07-23T09:17:07;4.50;;;1.60;;
65737;SDS011;52478;51.844;6.582;2022-07-23T09:19:34;4.68;;;1.70;;
65737;SDS011;52478;51.844;6.582;2022-07-23T09:24:45;5.65;;;1.65;;
65737;SDS011;52478;51.844;6.582;2022-07-23T09:27:44;4.95;;;1.90;;
65737;SDS011;52478;51.844;6.582;2022-07-23T09:30:10;6.88;;;2.00;;
65737;SDS011;52478;51.844;6.582;2022-07-23T09:32:37;5.90;;;1.90;;
65737;SDS011;52478;51.844;6.582;2022-07-23T09:35:04;5.10;;;1.80;;
65737;SDS011;52478;51.844;6.582;2022-07-23T09:37:30;5.82;;;1.90;;
65737;SDS011;52478;51.844;6.582;2022-07-23T09:40:04;4.93;;;1.85;;
65737;SDS011;52478;51.844;6.582;2022-07-23T09:42:30;4.72;;;1.50;;
65737;SDS011;52478;51.844;6.582;2022-07-23T09:44:57;5.68;;;1.88;;
65737;SDS011;52478;51.844;6.582;2022-07-23T09:47:24;4.85;;;1.95;;
65737;SDS011;52478;51.844;6.582;2022-07-23T09:59:43;6.28;;;2.10;;
65737;SDS011;52478;51.844;6.582;2022-07-23T10:02:11;5.43;;;1.83;;
65737;SDS011;52478;51.844;6.582;2022-07-23T10:04:38;7.35;;;1.90;;
65737;SDS011;52478;51.844;6.582;2022-07-23T10:07:05;6.75;;;1.88;;
65737;SDS011;52478;51.844;6.582;2022-07-23T10:09:32;8.05;;;1.90;;
65737;SDS011;52478;51.844;6.582;2022-07-23T10:11:59;6.55;;;2.03;;
65737;SDS011;52478;51.844;6.582;2022-07-23T10:14:39;6.95;;;2.10;;
65737;SDS011;52478;51.844;6.582;2022-07-23T10:17:07;15.00;;;3.10;;
65737;SDS011;52478;51.844;6.582;2022-07-23T10:19:34;9.63;;;2.30;;
65737;SDS011;52478;51.844;6.582;2022-07-23T10:22:01;7.30;;;2.35;;
65737;SDS011;52478;51.844;6.582;2022-07-23T10:24:30;8.48;;;2.03;;
65737;SDS011;52478;51.844;6.582;2022-07-23T10:27:02;7.20;;;2.00;;
65737;SDS011;52478;51.844;6.582;2022-07-23T10:29:35;5.13;;;1.65;;
65737;SDS011;52478;51.844;6.582;2022-07-23T10:32:04;7.88;;;1.83;;
65737;SDS011;52478;51.844;6.582;2022-07-23T10:34:39;5.47;;;1.80;;
65737;SDS011;52478;51.844;6.582;2022-07-23T10:37:11;5.88;;;2.00;;
65737;SDS011;52478;51.844;6.582;2022-07-23T10:39:39;6.30;;;1.92;;
65737;SDS011;52478;51.844;6.582;2022-07-23T10:42:08;7.85;;;1.80;;
65737;SDS011;52478;51.844;6.582;2022-07-23T10:44:37;5.35;;;1.90;;
65737;SDS011;52478;51.844;6.582;2022-07-23T10:47:04;6.72;;;2.00;;
65737;SDS011;52478;51.844;6.582;2022-07-23T10:49:40;7.65;;;2.35;;
65737;SDS011;52478;51.844;6.582;2022-07-23T10:52:15;5.50;;;1.70;;
65737;SDS011;52478;51.844;6.582;2022-07-23T10:54:42;5.32;;;1.80;;
65737;SDS011;52478;51.844;6.582;2022-07-23T10:57:10;6.20;;;2.00;;
65737;SDS011;52478;51.844;6.582;2022-07-23T11:02:22;4.35;;;1.42;;
65737;SDS011;52478;51.844;6.582;2022-07-23T11:04:50;6.22;;;2.28;;
65737;SDS011;52478;51.844;6.582;2022-07-23T11:07:17;5.30;;;1.90;;
65737;SDS011;52478;51.844;6.582;2022-07-23T11:09:43;5.15;;;2.03;;
65737;SDS011;52478;51.844;6.582;2022-07-23T11:14:59;4.95;;;1.83;;
65737;SDS011;52478;51.844;6.582;2022-07-23T11:17:26;6.15;;;1.80;;
65737;SDS011;52478;51.844;6.582;2022-07-23T11:36:56;5.13;;;1.90;;
65737;SDS011;52478;51.844;6.582;2022-07-23T11:39:24;5.22;;;1.90;;
65737;SDS011;52478;51.844;6.582;2022-07-23T11:41:51;5.65;;;1.83;;
65737;SDS011;52478;51.844;6.582;2022-07-23T11:44:24;5.72;;;1.80;;
65737;SDS011;52478;51.844;6.582;2022-07-23T11:46:54;5.90;;;2.30;;
65737;SDS011;52478;51.844;6.582;2022-07-23T11:49:20;5.38;;;2.40;;
65737;SDS011;52478;51.844;6.582;2022-07-23T11:51:46;6.25;;;2.30;;
65737;SDS011;52478;51.844;6.582;2022-07-23T11:54:14;6.10;;;2.10;;
65737;SDS011;52478;51.844;6.582;2022-07-23T11:56:54;5.97;;;2.20;;
65737;SDS011;52478;51.844;6.582;2022-07-23T11:59:20;5.38;;;2.45;;
65737;SDS011;52478;51.844;6.582;2022-07-23T12:01:55;5.97;;;2.35;;
65737;SDS011;52478;51.844;6.582;2022-07-23T12:04:21;5.10;;;1.88;;
65737;SDS011;52478;51.844;6.582;2022-07-23T12:06:48;5.75;;;1.92;;
65737;SDS011;52478;51.844;6.582;2022-07-23T12:09:15;6.00;;;2.10;;
65737;SDS011;52478;51.844;6.582;2022-07-23T12:11:56;5.95;;;2.28;;
65737;SDS011;52478;51.844;6.582;2022-07-23T12:14:22;4.82;;;1.92;;
65737;SDS011;52478;51.844;6.582;2022-07-23T12:19:30;5.25;;;2.38;;
65737;SDS011;52478;51.844;6.582;2022-07-23T12:21:56;6.28;;;2.20;;
65737;SDS011;52478;51.844;6.582;2022-07-23T12:24:24;5.55;;;2.13;;
65737;SDS011;52478;51.844;6.582;2022-07-23T12:29:33;6.28;;;2.10;;
65737;SDS011;52478;51.844;6.582;2022-07-23T12:32:00;7.03;;;2.35;;
65737;SDS011;52478;51.844;6.582;2022-07-23T12:34:26;5.93;;;2.22;;
65737;SDS011;52478;51.844;6.582;2022-07-23T12:36:53;5.75;;;2.10;;
65737;SDS011;52478;51.844;6.582;2022-07-23T12:39:30;6.10;;;2.55;;
65737;SDS011;52478;51.844;6.582;2022-07-23T12:41:56;6.22;;;2.13;;
65737;SDS011;52478;51.844;6.582;2022-07-23T12:44:23;6.53;;;2.20;;
65737;SDS011;52478;51.844;6.582;2022-07-23T12:46:49;5.68;;;2.25;;
65737;SDS011;52478;51.844;6.582;2022-07-23T12:49:24;6.38;;;2.05;;
65737;SDS011;52478;51.844;6.582;2022-07-23T12:51:51;6.75;;;2.30;;
65737;SDS011;52478;51.844;6.582;2022-07-23T12:54:17;5.90;;;2.45;;
65737;SDS011;52478;51.844;6.582;2022-07-23T12:56:45;5.82;;;2.25;;
65737;SDS011;52478;51.844;6.582;2022-07-23T12:59:12;4.93;;;2.10;;
65737;SDS011;52478;51.844;6.582;2022-07-23T13:01:41;6.32;;;2.03;;
65737;SDS011;52478;51.844;6.582;2022-07-23T13:04:09;5.10;;;2.50;;
65737;SDS011;52478;51.844;6.582;2022-07-23T13:06:37;7.78;;;2.80;;
65737;SDS011;52478;51.844;6.582;2022-07-23T13:09:07;6.68;;;2.60;;
65737;SDS011;52478;51.844;6.582;2022-07-23T13:11:33;6.95;;;2.25;;
65737;SDS011;52478;51.844;6.582;2022-07-23T13:14:01;5.88;;;2.53;;
65737;SDS011;52478;51.844;6.582;2022-07-23T13:16:28;5.75;;;2.13;;
65737;SDS011;52478;51.844;6.582;2022-07-23T13:18:54;5.25;;;2.40;;
65737;SDS011;52478;51.844;6.582;2022-07-23T13:21:21;7.50;;;2.20;;
65737;SDS011;52478;51.844;6.582;2022-07-23T13:23:47;5.38;;;2.13;;
65737;SDS011;52478;51.844;6.582;2022-07-23T13:26:14;5.80;;;2.45;;
65737;SDS011;52478;51.844;6.582;2022-07-23T13:28:40;5.53;;;2.60;;
65737;SDS011;52478;51.844;6.582;2022-07-23T13:31:08;6.90;;;2.50;;
65737;SDS011;52478;51.844;6.582;2022-07-23T13:33:34;4.82;;;2.10;;
65737;SDS011;52478;51.844;6.582;2022-07-23T13:36:00;5.93;;;2.50;;
65737;SDS011;52478;51.844;6.582;2022-07-23T13:38:27;7.68;;;2.80;;
65737;SDS011;52478;51.844;6.582;2022-07-23T13:40:53;5.25;;;2.45;;
65737;SDS011;52478;51.844;6.582;2022-07-23T13:43:20;5.30;;;2.33;;
65737;SDS011;52478;51.844;6.582;2022-07-23T13:45:47;5.90;;;2.60;;
65737;SDS011;52478;51.844;6.582;2022-07-23T13:48:15;5.78;;;2.30;;
65737;SDS011;52478;51.844;6.582;2022-07-23T13:50:42;5.68;;;2.53;;
65737;SDS011;52478;51.844;6.582;2022-07-23T13:55:36;5.43;;;2.58;;
65737;SDS011;52478;51.844;6.582;2022-07-23T13:58:02;7.60;;;2.90;;
65737;SDS011;52478;51.844;6.582;2022-07-23T14:00:29;6.93;;;3.13;;
65737;SDS011;52478;51.844;6.582;2022-07-23T14:02:56;6.18;;;2.58;;
65737;SDS011;52478;51.844;6.582;2022-07-23T14:05:24;6.18;;;2.80;;
65737;SDS011;52478;51.844;6.582;2022-07-23T14:07:50;6.15;;;2.15;;
65737;SDS011;52478;51.844;6.582;2022-07-23T14:10:17;5.85;;;2.60;;
65737;SDS011;52478;51.844;6.582;2022-07-23T14:12:44;6.25;;;2.47;;
65737;SDS011;52478;51.844;6.582;2022-07-23T14:15:11;6.43;;;2.33;;
65737;SDS011;52478;51.844;6.582;2022-07-23T14:17:37;6.88;;;2.50;;
65737;SDS011;52478;51.844;6.582;2022-07-23T14:22:32;6.25;;;2.70;;
65737;SDS011;52478;51.844;6.582;2022-07-23T14:24:58;5.88;;;2.80;;
65737;SDS011;52478;51.844;6.582;2022-07-23T14:27:25;6.63;;;2.55;;
65737;SDS011;52478;51.844;6.582;2022-07-23T14:29:52;5.78;;;2.67;;
65737;SDS011;52478;51.844;6.582;2022-07-23T14:32:18;6.10;;;2.80;;
65737;SDS011;52478;51.844;6.582;2022-07-23T14:34:45;7.75;;;3.22;;
65737;SDS011;52478;51.844;6.582;2022-07-23T14:37:11;10.52;;;3.20;;
65737;SDS011;52478;51.844;6.582;2022-07-23T14:39:39;9.35;;;3.38;;
65737;SDS011;52478;51.844;6.582;2022-07-23T14:42:05;12.05;;;3.30;;
65737;SDS011;52478;51.844;6.582;2022-07-23T14:44:32;8.10;;;2.95;;
65737;SDS011;52478;51.844;6.582;2022-07-23T14:46:58;9.10;;;2.85;;
65737;SDS011;52478;51.844;6.582;2022-07-23T14:49:25;9.05;;;3.60;;
65737;SDS011;52478;51.844;6.582;2022-07-23T14:51:51;8.73;;;2.70;;
65737;SDS011;52478;51.844;6.582;2022-07-23T14:54:17;6.22;;;2.88;;
65737;SDS011;52478;51.844;6.582;2022-07-23T14:56:46;6.93;;;2.88;;
65737;SDS011;52478;51.844;6.582;2022-07-23T14:59:12;6.22;;;3.50;;
65737;SDS011;52478;51.844;6.582;2022-07-23T15:01:39;6.78;;;3.00;;
65737;SDS011;52478;51.844;6.582;2022-07-23T15:04:05;6.13;;;2.95;;
65737;SDS011;52478;51.844;6.582;2022-07-23T15:06:32;6.75;;;2.95;;
65737;SDS011;52478;51.844;6.582;2022-07-23T15:08:58;7.00;;;2.95;;
65737;SDS011;52478;51.844;6.582;2022-07-23T15:11:26;7.15;;;3.08;;
65737;SDS011;52478;51.844;6.582;2022-07-23T15:13:53;7.18;;;3.10;;
65737;SDS011;52478;51.844;6.582;2022-07-23T15:16:19;6.60;;;2.83;;
65737;SDS011;52478;51.844;6.582;2022-07-23T15:18:46;7.20;;;3.30;;
65737;SDS011;52478;51.844;6.582;2022-07-23T15:21:12;6.43;;;3.03;;
65737;SDS011;52478;51.844;6.582;2022-07-23T15:23:38;7.60;;;3.10;;
65737;SDS011;52478;51.844;6.582;2022-07-23T15:26:05;8.35;;;3.17;;
65737;SDS011;52478;51.844;6.582;2022-07-23T15:28:31;7.88;;;2.97;;
65737;SDS011;52478;51.844;6.582;2022-07-23T15:30:59;5.72;;;3.00;;
65737;SDS011;52478;51.844;6.582;2022-07-23T15:33:25;6.55;;;3.10;;
65737;SDS011;52478;51.844;6.582;2022-07-23T15:35:52;8.15;;;3.22;;
65737;SDS011;52478;51.844;6.582;2022-07-23T15:38:20;7.10;;;2.92;;